createdAt,value
2023-04-02T00:00:31.136Z,9.06
2023-04-02T00:03:22.335Z,8.99
2023-04-02T00:05:51.046Z,8.95
2023-04-02T00:08:24.451Z,8.97
2023-04-02T00:10:58.021Z,8.91
2023-04-02T00:13:32.210Z,8.79
2023-04-02T00:16:03.538Z,8.72
2023-04-02T00:18:34.319Z,8.71
2023-04-02T00:21:13.729Z,8.66
2023-04-02T00:23:44.261Z,8.57
2023-04-02T00:26:42.640Z,8.56
2023-04-02T00:29:14.159Z,8.51
2023-04-02T00:31:44.987Z,8.51
2023-04-02T00:34:22.770Z,8.53
2023-04-02T00:36:52.482Z,8.41
2023-04-02T00:39:30.934Z,8.35
2023-04-02T00:42:05.844Z,8.31
2023-04-02T00:44:45.314Z,8.25
2023-04-02T00:47:27.667Z,8.25
2023-04-02T00:50:21.059Z,8.28
2023-04-02T00:52:52.570Z,8.29
2023-04-02T00:55:41.862Z,8.30
2023-04-02T00:58:32.803Z,8.29
2023-04-02T01:01:01.591Z,8.26
2023-04-02T01:03:35.284Z,8.17
2023-04-02T01:06:11.793Z,8.13
2023-04-02T01:08:45.848Z,8.09
2023-04-02T01:11:32.401Z,8.03
2023-04-02T01:14:20.579Z,7.99
2023-04-02T01:17:26.578Z,8.02
2023-04-02T01:20:19.795Z,7.99
2023-04-02T01:23:11.603Z,7.91
2023-04-02T01:26:14.425Z,7.83
2023-04-02T01:28:54.999Z,7.80
2023-04-02T01:31:24.127Z,7.79
2023-04-02T01:33:52.371Z,7.76
2023-04-02T01:36:23.455Z,7.78
2023-04-02T01:39:10.779Z,7.76
2023-04-02T01:41:41.873Z,7.72
2023-04-02T01:44:15.402Z,7.69
2023-04-02T01:46:45.038Z,7.69
2023-04-02T01:49:18.729Z,7.67
2023-04-02T01:51:53.171Z,7.64
2023-04-02T01:54:23.628Z,7.60
2023-04-02T01:56:52.341Z,7.61
2023-04-02T01:59:22.652Z,7.62
2023-04-02T02:02:05.492Z,7.67
2023-04-02T02:04:35.648Z,7.66
2023-04-02T02:07:05.002Z,7.66
2023-04-02T02:09:35.744Z,7.67
2023-04-02T02:12:05.356Z,7.66
2023-04-02T02:14:33.672Z,7.58
2023-04-02T02:17:04.402Z,7.51
2023-04-02T02:19:37.102Z,7.45
2023-04-02T02:22:24.323Z,7.41
2023-04-02T02:24:54.776Z,7.38
2023-04-02T02:27:23.243Z,7.39
2023-04-02T02:30:19.344Z,7.33
2023-04-02T02:32:57.972Z,7.23
2023-04-02T02:35:56.189Z,7.17
2023-04-02T02:38:34.119Z,7.08
2023-04-02T02:41:21.734Z,7.01
2023-04-02T02:44:20.118Z,6.96
2023-04-02T02:46:54.404Z,6.93
2023-04-02T02:49:26.323Z,6.91
2023-04-02T02:52:10.169Z,6.86
2023-04-02T02:54:51.258Z,6.82
2023-04-02T02:57:27.766Z,6.86
2023-04-02T02:59:59.474Z,6.86
2023-04-02T03:02:29.142Z,6.84
2023-04-02T03:04:58.528Z,6.79
2023-04-02T03:07:29.380Z,6.77
2023-04-02T03:10:18.304Z,6.72
2023-04-02T03:13:26.505Z,6.69
2023-04-02T03:16:17.930Z,6.68
2023-04-02T03:18:56.027Z,6.68
2023-04-02T03:21:37.461Z,6.64
2023-04-02T03:24:18.086Z,6.59
2023-04-02T03:26:56.401Z,6.54
2023-04-02T03:29:34.200Z,6.50
2023-04-02T03:32:21.345Z,6.47
2023-04-02T03:34:59.724Z,6.42
2023-04-02T03:37:41.184Z,6.40
2023-04-02T03:40:21.301Z,6.38
2023-04-02T03:43:12.345Z,6.40
2023-04-02T03:45:46.021Z,6.47
2023-04-02T03:48:18.611Z,6.47
2023-04-02T03:50:53.515Z,6.44
2023-04-02T03:53:25.802Z,6.45
2023-04-02T03:55:56.645Z,6.41
2023-04-02T03:58:47.140Z,6.33
2023-04-02T04:01:29.953Z,6.15
2023-04-02T04:04:06.036Z,6.09
2023-04-02T04:06:35.843Z,6.05
2023-04-02T04:09:29.680Z,6.08
2023-04-02T04:12:07.828Z,6.14
2023-04-02T04:14:41.900Z,6.17
2023-04-02T04:17:23.908Z,6.21
2023-04-02T04:20:00.236Z,6.25
2023-04-02T04:22:32.898Z,6.29
2023-04-02T04:25:33.906Z,6.34
2023-04-02T04:28:38.623Z,6.38
2023-04-02T04:31:47.337Z,6.42
2023-04-02T04:34:31.501Z,6.46
2023-04-02T04:37:07.740Z,6.52
2023-04-02T04:39:55.707Z,6.55
2023-04-02T04:42:29.191Z,6.57
2023-04-02T04:45:28.730Z,6.58
2023-04-02T04:48:10.842Z,6.62
2023-04-02T04:50:55.282Z,6.69
2023-04-02T04:53:27.716Z,6.80
2023-04-02T04:56:16.556Z,6.86
2023-04-02T04:58:51.364Z,6.90
2023-04-02T05:01:19.517Z,6.96
2023-04-02T05:04:03.208Z,7.03
2023-04-02T05:06:39.764Z,7.09
2023-04-02T05:09:23.237Z,7.19
2023-04-02T05:12:24.776Z,7.18
2023-04-02T05:15:17.568Z,7.23
2023-04-02T05:17:53.766Z,7.35
2023-04-02T05:20:28.639Z,7.44
2023-04-02T05:23:05.329Z,7.57
2023-04-02T05:25:34.214Z,7.73
2023-04-02T05:28:26.786Z,7.83
2023-04-02T05:31:04.401Z,8.00
2023-04-02T05:33:35.472Z,8.11
2023-04-02T05:36:19.629Z,8.23
2023-04-02T05:38:52.242Z,8.37
2023-04-02T05:41:36.939Z,8.48
2023-04-02T05:44:50.072Z,8.55
2023-04-02T05:47:26.303Z,8.64
2023-04-02T05:50:07.656Z,8.75
2023-04-02T05:52:45.884Z,8.84
2023-04-02T05:55:17.069Z,8.90
2023-04-02T05:58:13.626Z,8.99
2023-04-02T06:01:04.336Z,9.13
2023-04-02T06:03:35.399Z,9.28
2023-04-02T06:06:14.755Z,9.42
2023-04-02T06:08:52.275Z,9.59
2023-04-02T06:11:27.404Z,9.76
2023-04-02T06:13:56.216Z,9.91
2023-04-02T06:16:28.850Z,10.07
2023-04-02T06:18:57.949Z,10.24
2023-04-02T06:21:27.084Z,10.41
2023-04-02T06:24:01.708Z,10.60
2023-04-02T06:26:38.261Z,10.81
2023-04-02T06:29:25.762Z,10.99
2023-04-02T06:32:01.919Z,11.18
2023-04-02T06:34:31.951Z,11.34
2023-04-02T06:37:40.001Z,11.44
2023-04-02T06:40:33.688Z,11.60
2023-04-02T06:43:36.239Z,11.73
2023-04-02T06:46:38.056Z,11.82
2023-04-02T06:49:24.849Z,11.98
2023-04-02T06:52:01.509Z,12.09
2023-04-02T06:54:31.392Z,12.16
2023-04-02T06:57:07.494Z,12.25
2023-04-02T06:59:39.514Z,12.39
2023-04-02T07:02:19.968Z,12.51
2023-04-02T07:04:49.048Z,12.60
2023-04-02T07:07:17.893Z,12.67
2023-04-02T07:09:47.772Z,12.75
2023-04-02T07:12:22.656Z,12.83
2023-04-02T07:14:51.624Z,12.90
2023-04-02T07:17:21.488Z,12.90
2023-04-02T07:19:49.856Z,12.88
2023-04-02T07:22:21.383Z,12.97
2023-04-02T07:24:53.673Z,13.03
2023-04-02T07:27:21.945Z,13.03
2023-04-02T07:29:50.042Z,12.95
2023-04-02T07:32:19.625Z,12.82
2023-04-02T07:34:49.051Z,12.69
2023-04-02T07:37:17.189Z,12.61
2023-04-02T07:39:45.447Z,12.56
2023-04-02T07:42:13.667Z,12.58
2023-04-02T07:44:43.296Z,12.65
2023-04-02T07:47:11.623Z,12.68
2023-04-02T07:49:39.892Z,12.73
2023-04-02T07:52:08.033Z,12.86
2023-04-02T07:54:36.268Z,12.97
2023-04-02T07:57:04.527Z,13.03
2023-04-02T07:59:32.737Z,13.04
2023-04-02T08:02:01.003Z,13.18
2023-04-02T08:04:29.191Z,13.47
2023-04-02T08:06:57.395Z,13.69
2023-04-02T08:09:25.651Z,13.92
2023-04-02T08:11:53.785Z,14.26
2023-04-02T08:14:21.970Z,14.60
2023-04-02T08:16:52.952Z,14.80
2023-04-02T08:19:21.786Z,14.97
2023-04-02T08:21:52.057Z,15.15
2023-04-02T08:24:21.425Z,15.48
2023-04-02T08:26:51.696Z,15.88
2023-04-02T08:29:20.982Z,16.24
2023-04-02T08:31:49.333Z,16.47
2023-04-02T08:34:17.472Z,16.62
2023-04-02T08:36:46.014Z,16.74
2023-04-02T08:39:14.864Z,16.97
2023-04-02T08:41:58.544Z,17.14
2023-04-02T08:44:50.648Z,17.15
2023-04-02T08:47:21.755Z,17.03
2023-04-02T08:49:56.149Z,17.13
2023-04-02T08:52:25.936Z,17.17
2023-04-02T08:54:56.297Z,16.97
2023-04-02T08:57:36.745Z,17.00
2023-04-02T09:00:20.966Z,16.85
2023-04-02T09:03:08.013Z,16.76
2023-04-02T09:05:40.935Z,16.79
2023-04-02T09:08:25.075Z,16.71
2023-04-02T09:10:59.293Z,16.66
2023-04-02T09:13:30.623Z,16.51
2023-04-02T09:16:12.033Z,16.49
2023-04-02T09:18:40.712Z,16.52
2023-04-02T09:21:42.040Z,16.43
2023-04-02T09:24:15.980Z,16.23
2023-04-02T09:26:44.067Z,16.13
2023-04-02T09:29:12.197Z,15.88
2023-04-02T09:31:45.613Z,15.78
2023-04-02T09:34:30.727Z,15.77
2023-04-02T09:37:16.436Z,15.71
2023-04-02T09:39:44.769Z,15.48
2023-04-02T09:42:29.927Z,15.25
2023-04-02T09:45:23.964Z,14.87
2023-04-02T09:47:56.280Z,14.61
2023-04-02T09:50:28.901Z,14.42
2023-04-02T09:52:57.591Z,14.29
2023-04-02T09:55:31.103Z,14.25
2023-04-02T09:58:12.069Z,14.18
2023-04-02T10:00:49.470Z,14.19
2023-04-02T10:03:28.978Z,14.13
2023-04-02T10:06:12.934Z,14.18
2023-04-02T10:08:44.393Z,14.19
2023-04-02T10:11:36.409Z,14.18
2023-04-02T10:14:21.736Z,14.18
2023-04-02T10:16:53.869Z,14.14
2023-04-02T10:19:32.475Z,14.21
2023-04-02T10:22:07.148Z,14.43
2023-04-02T10:24:35.480Z,14.68
2023-04-02T10:27:12.215Z,14.77
2023-04-02T10:29:48.326Z,14.95
2023-04-02T10:32:30.814Z,15.30
2023-04-02T10:35:03.700Z,15.57
2023-04-02T10:37:48.973Z,15.61
2023-04-02T10:40:29.442Z,15.37
2023-04-02T10:43:23.576Z,15.08
2023-04-02T10:46:01.147Z,14.95
2023-04-02T10:48:44.694Z,14.86
2023-04-02T10:51:51.992Z,14.72
2023-04-02T10:54:45.011Z,14.54
2023-04-02T10:57:35.368Z,14.31
2023-04-02T11:00:19.052Z,14.20
2023-04-02T11:03:02.981Z,14.11
2023-04-02T11:05:48.003Z,14.01
2023-04-02T11:08:34.556Z,13.83
2023-04-02T11:11:16.958Z,13.68
2023-04-02T11:14:01.225Z,13.51
2023-04-02T11:16:29.862Z,13.33
2023-04-02T11:19:16.109Z,13.27
2023-04-02T11:22:06.453Z,13.25
2023-04-02T11:24:45.435Z,13.21
2023-04-02T11:27:27.956Z,13.19
2023-04-02T11:30:27.167Z,13.19
2023-04-02T11:36:25.692Z,13.22
2023-04-02T11:38:55.007Z,13.21
2023-04-02T11:42:07.854Z,13.13
2023-04-02T11:44:36.242Z,13.05
2023-04-02T11:47:33.948Z,13.02
2023-04-02T11:50:05.259Z,13.01
2023-04-02T11:52:38.998Z,12.99
2023-04-02T11:55:24.497Z,13.05
2023-04-02T11:58:21.268Z,13.13
2023-04-02T12:01:15.806Z,13.25
2023-04-02T12:04:07.196Z,13.40
2023-04-02T12:06:47.476Z,13.41
2023-04-02T12:09:25.515Z,13.45
2023-04-02T12:12:00.764Z,13.44
2023-04-02T12:14:45.819Z,13.49
2023-04-02T12:17:27.164Z,13.36
2023-04-02T12:20:09.949Z,13.41
2023-04-02T12:22:41.136Z,13.46
2023-04-02T12:25:23.286Z,13.42
2023-04-02T12:28:24.562Z,13.46
2023-04-02T12:31:03.715Z,13.42
2023-04-02T12:33:37.490Z,13.43
2023-04-02T12:36:26.444Z,13.49
2023-04-02T12:38:57.479Z,13.60
2023-04-02T12:41:27.387Z,13.71
2023-04-02T12:44:15.570Z,13.84
2023-04-02T12:46:45.951Z,13.94
2023-04-02T12:49:32.729Z,14.08
2023-04-02T12:52:07.477Z,14.17
2023-04-02T12:54:58.559Z,14.25
2023-04-02T12:57:26.705Z,14.28
2023-04-02T13:00:27.570Z,14.30
2023-04-02T13:03:01.200Z,14.37
2023-04-02T13:05:44.438Z,14.48
2023-04-02T13:08:42.096Z,14.59
2023-04-02T13:11:10.644Z,14.67
2023-04-02T13:13:41.407Z,14.78
2023-04-02T13:16:15.938Z,14.84
2023-04-02T13:18:45.129Z,14.95
2023-04-02T13:21:16.511Z,15.03
2023-04-02T13:23:46.265Z,15.19
2023-04-02T13:26:28.730Z,15.26
2023-04-02T13:29:03.032Z,15.34
2023-04-02T13:31:32.712Z,15.40
2023-04-02T13:34:01.593Z,15.46
2023-04-02T13:36:29.853Z,15.51
2023-04-02T13:38:58.066Z,15.51
2023-04-02T13:41:28.692Z,15.54
2023-04-02T13:44:02.400Z,15.60
2023-04-02T13:46:32.982Z,15.59
2023-04-02T13:49:01.707Z,15.50
2023-04-02T13:51:37.436Z,15.40
2023-04-02T13:54:14.010Z,15.35
2023-04-02T13:56:42.741Z,15.34
2023-04-02T13:59:11.057Z,15.29
2023-04-02T14:01:41.414Z,15.19
2023-04-02T14:04:13.764Z,15.09
2023-04-02T14:07:01.626Z,14.98
2023-04-02T14:09:54.002Z,14.95
2023-04-02T14:12:33.587Z,14.86
2023-04-02T14:15:33.931Z,14.82
2023-04-02T14:18:27.092Z,14.66
2023-04-02T14:21:27.055Z,14.52
2023-04-02T14:24:36.292Z,14.43
2023-04-02T14:27:23.762Z,14.33
2023-04-02T14:30:18.480Z,14.21
2023-04-02T14:32:49.483Z,14.12
2023-04-02T14:35:29.861Z,14.01
2023-04-02T14:38:17.197Z,13.86
2023-04-02T14:40:46.580Z,13.64
2023-04-02T14:43:22.497Z,13.59
2023-04-02T14:45:58.072Z,13.54
2023-04-02T14:48:45.177Z,13.47
2023-04-02T14:51:27.436Z,13.39
2023-04-02T14:53:55.692Z,13.31
2023-04-02T14:56:25.715Z,13.26
2023-04-02T14:59:34.413Z,13.20
2023-04-02T15:02:09.467Z,13.13
2023-04-02T15:04:41.752Z,13.12
2023-04-02T15:07:19.913Z,13.11
2023-04-02T15:09:54.886Z,12.99
2023-04-02T15:12:28.816Z,12.90
2023-04-02T15:15:39.049Z,12.86
2023-04-02T15:18:15.110Z,12.80
2023-04-02T15:20:54.974Z,12.80
2023-04-02T15:24:15.510Z,12.79
2023-04-02T15:27:24.868Z,12.71
2023-04-02T15:29:58.041Z,12.67
2023-04-02T15:32:32.080Z,12.68
2023-04-02T15:35:54.672Z,12.69
2023-04-02T15:38:30.362Z,12.69
2023-04-02T15:41:13.830Z,12.71
2023-04-02T15:44:09.938Z,12.75
2023-04-02T15:47:01.804Z,12.77
2023-04-02T15:49:48.741Z,12.74
2023-04-02T15:52:22.640Z,12.69
2023-04-02T15:55:09.862Z,12.64
2023-04-02T15:58:17.397Z,12.54
2023-04-02T16:01:03.674Z,12.18
2023-04-02T16:03:47.601Z,12.09
2023-04-02T16:06:39.716Z,12.08
2023-04-02T16:09:16.260Z,12.05
2023-04-02T16:11:44.413Z,11.98
2023-04-02T16:14:28.050Z,11.88
2023-04-02T16:17:10.870Z,11.74
2023-04-02T16:19:51.241Z,11.68
2023-04-02T16:22:26.020Z,11.62
2023-04-02T16:25:16.062Z,11.55
2023-04-02T16:27:51.541Z,11.54
2023-04-02T16:30:41.534Z,11.52
2023-04-02T16:33:28.194Z,11.45
2023-04-02T16:36:11.894Z,11.34
2023-04-02T16:38:43.086Z,11.28
2023-04-02T16:41:19.468Z,11.22
2023-04-02T16:44:21.997Z,11.16
2023-04-02T16:47:02.629Z,11.11
2023-04-02T16:49:49.226Z,11.06
2023-04-02T16:52:43.198Z,11.05
2023-04-02T16:55:11.767Z,11.04
2023-04-02T16:58:37.728Z,11.04
2023-04-02T17:01:20.707Z,11.02
2023-04-02T17:03:57.938Z,11.05
2023-04-02T17:06:39.879Z,11.09
2023-04-02T17:09:24.105Z,11.10
2023-04-02T17:12:01.586Z,11.10
2023-04-02T17:15:03.751Z,11.05
2023-04-02T17:17:32.002Z,11.00
2023-04-02T17:20:01.135Z,10.98
2023-04-02T17:22:31.637Z,10.95
2023-04-02T17:25:04.801Z,10.92
2023-04-02T17:27:39.703Z,10.87
2023-04-02T17:30:43.340Z,10.83
2023-04-02T17:33:17.563Z,10.79
2023-04-02T17:36:02.736Z,10.78
2023-04-02T17:38:44.074Z,10.75
2023-04-02T17:41:28.954Z,10.73
2023-04-02T17:43:57.065Z,10.73
2023-04-02T17:46:49.630Z,10.71
2023-04-02T17:49:56.557Z,10.70
2023-04-02T17:52:33.488Z,10.66
2023-04-02T17:55:19.592Z,10.67
2023-04-02T17:58:18.607Z,10.69
2023-04-02T18:01:41.052Z,10.69
2023-04-02T18:04:46.531Z,10.66
2023-04-02T18:07:35.702Z,10.65
2023-04-02T18:10:24.057Z,10.65
2023-04-02T18:13:11.953Z,10.65
2023-04-02T18:15:53.569Z,10.61
2023-04-02T18:18:59.317Z,10.59
2023-04-02T18:21:46.453Z,10.54
2023-04-02T18:24:30.867Z,10.50
2023-04-02T18:27:17.967Z,10.47
2023-04-02T18:29:58.298Z,10.45
2023-04-02T18:32:38.236Z,10.42
2023-04-02T18:35:38.838Z,10.38
2023-04-02T18:38:24.045Z,10.39
2023-04-02T18:41:31.489Z,10.38
2023-04-02T18:44:28.735Z,10.38
2023-04-02T18:47:15.554Z,10.38
2023-04-02T18:49:51.947Z,10.38
2023-04-02T18:52:24.882Z,10.38
2023-04-02T18:54:59.960Z,10.37
2023-04-02T18:57:36.179Z,10.35
2023-04-02T19:00:34.844Z,10.34
2023-04-02T19:03:12.660Z,10.30
2023-04-02T19:05:51.519Z,10.27
2023-04-02T19:08:42.086Z,10.25
2023-04-02T19:11:19.073Z,10.19
2023-04-02T19:13:49.125Z,10.17
2023-04-02T19:16:17.289Z,10.16
2023-04-02T19:18:54.318Z,10.15
2023-04-02T19:21:37.433Z,10.11
2023-04-02T19:24:22.047Z,10.12
2023-04-02T19:27:32.189Z,10.11
2023-04-02T19:30:38.668Z,10.09
2023-04-02T19:34:00.980Z,10.05
2023-04-02T19:36:40.397Z,10.04
2023-04-02T19:39:24.862Z,10.04
2023-04-02T19:42:11.657Z,10.02
2023-04-02T19:44:45.231Z,9.99
2023-04-02T19:47:14.646Z,9.96
2023-04-02T19:49:42.910Z,9.91
2023-04-02T19:52:11.394Z,9.89
2023-04-02T19:54:39.720Z,9.86
2023-04-02T19:57:08.266Z,9.84
2023-04-02T19:59:36.495Z,9.84
2023-04-02T20:02:07.281Z,9.85
2023-04-02T20:04:35.716Z,9.85
2023-04-02T20:07:03.832Z,9.85
2023-04-02T20:09:31.941Z,9.84
2023-04-02T20:12:00.305Z,9.83
2023-04-02T20:14:28.444Z,9.83
2023-04-02T20:16:56.756Z,9.80
2023-04-02T20:19:25.028Z,9.80
2023-04-02T20:21:53.142Z,9.75
2023-04-02T20:24:21.334Z,9.73
2023-04-02T20:26:49.664Z,9.72
2023-04-02T20:29:17.853Z,9.71
2023-04-02T20:31:46.183Z,9.68
2023-04-02T20:34:14.590Z,9.66
2023-04-02T20:36:42.996Z,9.62
2023-04-02T20:39:12.193Z,9.62
2023-04-02T20:41:40.415Z,9.57
2023-04-02T20:44:08.629Z,9.55
2023-04-02T20:46:36.879Z,9.52
2023-04-02T20:49:05.175Z,9.44
2023-04-02T20:51:34.414Z,9.40
2023-04-02T20:54:02.611Z,9.38
2023-04-02T20:56:30.748Z,9.39
2023-04-02T20:58:58.958Z,9.36
2023-04-02T21:01:30.049Z,9.29
2023-04-02T21:04:01.173Z,9.17
2023-04-02T21:06:32.920Z,9.08
2023-04-02T21:09:02.804Z,9.05
2023-04-02T21:11:31.036Z,9.01
2023-04-02T21:13:59.631Z,8.95
2023-04-02T21:16:30.008Z,8.86
2023-04-02T21:19:01.041Z,8.86
2023-04-02T21:21:29.546Z,8.85
2023-04-02T21:24:00.462Z,8.82
2023-04-02T21:26:31.313Z,8.82
2023-04-02T21:29:00.740Z,8.83
2023-04-02T21:31:31.309Z,8.82
2023-04-02T21:34:00.122Z,8.79
2023-04-02T21:36:31.488Z,8.76
2023-04-02T21:39:02.330Z,8.78
2023-04-02T21:41:33.215Z,8.76
2023-04-02T21:44:03.306Z,8.71
2023-04-02T21:46:36.244Z,8.67
2023-04-02T21:49:08.116Z,8.69
2023-04-02T21:51:38.899Z,8.69
2023-04-02T21:54:08.078Z,8.66
2023-04-02T21:56:39.442Z,8.67
2023-04-02T21:59:09.860Z,8.66
2023-04-02T22:01:46.598Z,8.61
2023-04-02T22:04:18.569Z,8.47
2023-04-02T22:06:47.958Z,8.33
2023-04-02T22:09:19.242Z,8.28
2023-04-02T22:11:50.954Z,8.16
2023-04-02T22:14:19.073Z,8.06
2023-04-02T22:16:47.443Z,8.03
2023-04-02T22:19:17.005Z,7.93
2023-04-02T22:21:46.132Z,7.90
2023-04-02T22:24:16.437Z,7.93
2023-04-02T22:26:45.474Z,7.91
2023-04-02T22:29:13.778Z,7.91
2023-04-02T22:31:42.037Z,7.90
2023-04-02T22:34:10.509Z,7.84
2023-04-02T22:36:38.728Z,7.78
2023-04-02T22:39:10.339Z,7.78
2023-04-02T22:41:38.672Z,7.72
2023-04-02T22:44:06.950Z,7.61
2023-04-02T22:46:35.227Z,7.54
2023-04-02T22:49:03.688Z,7.51
2023-04-02T22:51:31.812Z,7.50
2023-04-02T22:54:00.085Z,7.50
2023-04-02T22:56:32.404Z,7.49
2023-04-02T22:59:00.940Z,7.41
2023-04-02T23:01:32.533Z,7.38
2023-04-02T23:04:01.062Z,7.34
2023-04-02T23:06:29.380Z,7.34
2023-04-02T23:08:58.103Z,7.34
2023-04-02T23:11:28.174Z,7.36
2023-04-02T23:13:57.834Z,7.31
2023-04-02T23:16:28.375Z,7.27
2023-04-02T23:18:57.557Z,7.24
2023-04-02T23:21:26.270Z,7.16
2023-04-02T23:23:54.560Z,7.06
2023-04-02T23:26:27.258Z,6.99
2023-04-02T23:28:55.388Z,6.91
2023-04-02T23:31:24.184Z,6.81
2023-04-02T23:33:52.871Z,6.73
2023-04-02T23:36:27.777Z,6.67
2023-04-02T23:39:01.247Z,6.66
2023-04-02T23:41:30.773Z,6.58
2023-04-02T23:43:59.748Z,6.53
2023-04-02T23:46:29.146Z,6.49
2023-04-02T23:48:58.981Z,6.42
2023-04-02T23:51:28.938Z,6.35
2023-04-02T23:53:57.307Z,6.29
2023-04-02T23:56:26.014Z,6.24
2023-04-02T23:58:54.313Z,6.18
